Portada
METAR-TAF:

METAR-TAF

Aeropuertos :

Aeropuerto de Madeira

Funchal, Madeira, Portugal

latitud: 32-41-52N, longitud: 016-46-28W, altitud: 59 m

Observación

El informe se hizo hace 36 minutos, a las 06:00 UTC
Viento 11 kt del norte, variando entre norte-noroeste y norte-noreste
Temperatura 21°C
Humedad 69%
Presión 1019 hPa
Visibilidad 10 km o más
Nubes dispersas a una altura de 1600 ft

METAR: LPMA 220600Z 01011KT 330V030 9999 SCT016 21/15 Q1019

Hora: 07:36 (06:36 UTC)

Pronóstico

El informe se hizo hace 1 hora y 36 minutos, a las 05:00 UTC
Pronóstico válido del 22 a las 06 UTC al 23 a las 06 UTC
Viento 12 kt del norte
Visibilidad 10 km o más
Nubes dispersas a una altura de 1600 ft
Temporalmente
del 22 a las 06 UTC al 22 a las 18 UTC
Nubes dispersas a una altura de 1500 ft
Cielo nuboso a una altura de 3000 ft

TAF: LPMA 220500Z 2206/2306 01012KT 9999 SCT016 TEMPO 2206/2218 SCT015 BKN030

Observaciones y pronósticos meteorológicos de más de 4000 aeropuertos (mensajes METAR y TAF).

Los puntos amarillos y rojos representan las estaciones disponibles.

Ponga el ratón en el punto deseado para ver el nombre de la estación.

Haga clic para ver las observaciones y los pronósticos meteorológicos.

Para cambiar el mapa : haga clic en los botones verdes con una cruz de color negro para hacer un zoom, en el botón verde con un guión para alejar o en las flechas verdes para mapas adyacentes.


METAR-TAF: